(°F)
56°
56°
56°
56°
57°
58°
59°
(°F)
53°
53°
53°
53°
53°
54°
55°
N
N
N
N
N
N
NNW
(mph)
6-13
6-13
6-13
6-13
7-13
7-13
7-12
(in)
0
0
0
0
0
0
0
(%)
1
1
1
0
0
0
0

Sun elevation

/ -29.3°
sun-icon
UV 3
07:00
17:50
Waning gibbous moon (212°)
19:29
09:54

METAR for Barnstable (KHYA)

Time Conditions Temperature/
Dewpoint
Wind Visibility Weather Clouds Pressure Change Raw
VFR 57.02°F / 48.02°F 340º 5kt >10km - Scattered Clouds 4200ft
Overcast 9500ft
1011 - KHYA 230756Z AUTO 34005KT 10SM SCT042 OVC095 14/09 A2988 RMK AO2 SLP119 T01390089
VFR 55.94°F / 48.92°F 340º 4kt >10km - Clear 1012 - KHYA 230656Z AUTO 34004KT 10SM CLR 13/09 A2989 RMK AO2 SLP121 T01330094
VFR 57.02°F / 48.92°F 340º 6kt >10km - Clear 1011 - KHYA 230556Z AUTO 34006KT 10SM CLR 14/09 A2988 RMK AO2 SLP118 T01390094 10172 20122 58003
VFR 57.92°F / 51.08°F 350º 5kt >10km - Clear 1011 - KHYA 230456Z AUTO 35005KT 10SM CLR 14/11 A2988 RMK AO2 SLP118 T01440106 402170122
VFR 57.02°F / 55.04°F 350º 4kt >10km - Broken Clouds 5000ft 1012 - KHYA 230356Z AUTO 35004KT 10SM BKN050 14/13 A2988 RMK AO2 SLP120 T01390128
VFR 57.02°F / 55.94°F variable 0kt >10km - Clear 1012 - KHYA 230256Z AUTO 00000KT 8SM CLR 14/13 A2989 RMK AO2 SLP121 T01390133 53001
VFR 60.08°F / 59°F variable 0kt >10km - Clear 1011 - KHYA 230156Z AUTO 00000KT 10SM CLR 16/15 A2988 RMK AO2 SLP118 T01560150
VFR 60.98°F / 57.92°F 230º 7kt >10km - Scattered Clouds 11000ft 1011 - KHYA 230056Z 23007KT 10SM SCT110 16/14 A2988 RMK AO2 SLP118 T01610144
VFR 62.06°F / 59°F 220º 11kt >10km - Few Clouds 11000ft 1011 - KHYA 222356Z 22011KT 10SM FEW110 17/15 A2988 RMK AO2 SLP119 T01670150 10211 20167 53013
VFR 62.96°F / 59°F 210º 8kt >10km - Clear 1011 - KHYA 222256Z 21008KT 10SM CLR 17/15 A2987 RMK AO2 SLP115 T01720150
VFR 62.96°F / 59°F 220º 8kt >10km - Clear 1010 - KHYA 222156Z 22008KT 10SM CLR 17/15 A2984 RMK AO2 SLP106 T01720150
VFR 66.02°F / 59°F 230º 11kt >10km - Clear 1010 - KHYA 222056Z 23011KT 10SM CLR 19/15 A2984 RMK AO2 SLP107 T01890150 53007
VFR 66.02°F / 57.92°F 230º 13kt >10km - Clear 1010 - KHYA 221956Z 23013KT 10SM CLR 19/14 A2983 RMK AO2 SLP102 T01890144
VFR 69.08°F / 57.92°F 220º 15kt Gust 25kt >10km - Broken Clouds 10000ft 1010 - KHYA 221856Z 22015G25KT 10SM BKN100 21/14 A2982 RMK AO2 SLP100 T02060144
VFR 68°F / 57.92°F 230º 13kt Gust 21kt >10km - Overcast 10000ft 1010 - KHYA 221756Z 23013G21KT 10SM OVC100 20/14 A2982 RMK AO2 SLP100 T02000144 10217 20194 50002
VFR 69.08°F / 59°F 230º 16kt >10km - Broken Clouds 8000ft
Broken Clouds 9500ft
Overcast 11000ft
1010 - KHYA 221656Z 23016KT 10SM BKN080 BKN095 OVC110 21/15 A2983 RMK AO2 SLP100 T02060150
VFR 69.08°F / 62.06°F 220º 14kt >10km - Scattered Clouds 9500ft 1010 - KHYA 221556Z 22014KT 10SM SCT095 21/17 A2982 RMK AO2 SLP100 T02060167
VFR 69.98°F / 62.06°F 220º 15kt Gust 24kt >10km - Broken Clouds 9000ft 1009 - KHYA 221456Z 22015G24KT 10SM BKN090 21/17 A2982 RMK AO2 PK WND 22027/1414 SLP098 T02110167 50004
VFR 69.98°F / 64.04°F 220º 16kt >10km - Scattered Clouds 9500ft 1010 - KHYA 221356Z 22016KT 9SM SCT095 21/18 A2982 RMK AO2 SLP100 T02110178
VFR 66.92°F / 62.96°F 210º 14kt Gust 20kt >10km - Clear 1009 - KHYA 221256Z 21014G20KT 8SM CLR 19/17 A2982 RMK AO2 SLP098 T01940172
VFR 66.92°F / 62.96°F 200º 13kt Gust 20kt >10km - Clear 1009 - KHYA 221156Z 20013G20KT 7SM CLR 19/17 A2981 RMK AO2 SLP094 T01940172 10194 20183 55000
VFR 66.02°F / 62.96°F 200º 11kt Gust 19kt >10km - Broken Clouds 7000ft 1008 - KHYA 221056Z 20011G19KT 8SM BKN070 19/17 A2979 RMK AO2 SLP089 T01890172
VFR 66.02°F / 62.96°F 200º 8kt >10km - Broken Clouds 6000ft
Overcast 7000ft
1009 - KHYA 220956Z 20008KT 8SM BKN060 OVC070 19/17 A2980 RMK AO2 SLP093 T01890172
VFR 64.94°F / 62.96°F 210º 9kt >10km - Few Clouds 5500ft 1009 - KHYA 220856Z AUTO 21009KT 8SM FEW055 18/17 A2981 RMK AO2 SLP095 T01830172 56009

VFR

57.02°F / 48.02°F

[More]
Wind 340º 5kt
Visibility >10km
Weather -
Clouds Scattered Clouds 4200ft
Overcast 9500ft
Pressure 1011
Change -
Raw KHYA 230756Z AUTO 34005KT 10SM SCT042 OVC095 14/09 A2988 RMK AO2 SLP119 T01390089

VFR

55.94°F / 48.92°F

[More]
Wind 340º 4kt
Visibility >10km
Weather -
Clouds Clear
Pressure 1012
Change -
Raw KHYA 230656Z AUTO 34004KT 10SM CLR 13/09 A2989 RMK AO2 SLP121 T01330094

VFR

57.02°F / 48.92°F

[More]
Wind 340º 6kt
Visibility >10km
Weather -
Clouds Clear
Pressure 1011
Change -
Raw KHYA 230556Z AUTO 34006KT 10SM CLR 14/09 A2988 RMK AO2 SLP118 T01390094 10172 20122 58003

VFR

57.92°F / 51.08°F

[More]
Wind 350º 5kt
Visibility >10km
Weather -
Clouds Clear
Pressure 1011
Change -
Raw KHYA 230456Z AUTO 35005KT 10SM CLR 14/11 A2988 RMK AO2 SLP118 T01440106 402170122

VFR

57.02°F / 55.04°F

[More]
Wind 350º 4kt
Visibility >10km
Weather -
Clouds Broken Clouds 5000ft
Pressure 1012
Change -
Raw KHYA 230356Z AUTO 35004KT 10SM BKN050 14/13 A2988 RMK AO2 SLP120 T01390128

VFR

57.02°F / 55.94°F

[More]
Wind variable 0kt
Visibility >10km
Weather -
Clouds Clear
Pressure 1012
Change -
Raw KHYA 230256Z AUTO 00000KT 8SM CLR 14/13 A2989 RMK AO2 SLP121 T01390133 53001

VFR

60.08°F / 59°F

[More]
Wind variable 0kt
Visibility >10km
Weather -
Clouds Clear
Pressure 1011
Change -
Raw KHYA 230156Z AUTO 00000KT 10SM CLR 16/15 A2988 RMK AO2 SLP118 T01560150

VFR

60.98°F / 57.92°F

[More]
Wind 230º 7kt
Visibility >10km
Weather -
Clouds Scattered Clouds 11000ft
Pressure 1011
Change -
Raw KHYA 230056Z 23007KT 10SM SCT110 16/14 A2988 RMK AO2 SLP118 T01610144

VFR

62.06°F / 59°F

[More]
Wind 220º 11kt
Visibility >10km
Weather -
Clouds Few Clouds 11000ft
Pressure 1011
Change -
Raw KHYA 222356Z 22011KT 10SM FEW110 17/15 A2988 RMK AO2 SLP119 T01670150 10211 20167 53013

VFR

62.96°F / 59°F

[More]
Wind 210º 8kt
Visibility >10km
Weather -
Clouds Clear
Pressure 1011
Change -
Raw KHYA 222256Z 21008KT 10SM CLR 17/15 A2987 RMK AO2 SLP115 T01720150

VFR

62.96°F / 59°F

[More]
Wind 220º 8kt
Visibility >10km
Weather -
Clouds Clear
Pressure 1010
Change -
Raw KHYA 222156Z 22008KT 10SM CLR 17/15 A2984 RMK AO2 SLP106 T01720150

VFR

66.02°F / 59°F

[More]
Wind 230º 11kt
Visibility >10km
Weather -
Clouds Clear
Pressure 1010
Change -
Raw KHYA 222056Z 23011KT 10SM CLR 19/15 A2984 RMK AO2 SLP107 T01890150 53007

VFR

66.02°F / 57.92°F

[More]
Wind 230º 13kt
Visibility >10km
Weather -
Clouds Clear
Pressure 1010
Change -
Raw KHYA 221956Z 23013KT 10SM CLR 19/14 A2983 RMK AO2 SLP102 T01890144

VFR

69.08°F / 57.92°F

[More]
Wind 220º 15kt Gust 25kt
Visibility >10km
Weather -
Clouds Broken Clouds 10000ft
Pressure 1010
Change -
Raw KHYA 221856Z 22015G25KT 10SM BKN100 21/14 A2982 RMK AO2 SLP100 T02060144

VFR

68°F / 57.92°F

[More]
Wind 230º 13kt Gust 21kt
Visibility >10km
Weather -
Clouds Overcast 10000ft
Pressure 1010
Change -
Raw KHYA 221756Z 23013G21KT 10SM OVC100 20/14 A2982 RMK AO2 SLP100 T02000144 10217 20194 50002

VFR

69.08°F / 59°F

[More]
Wind 230º 16kt
Visibility >10km
Weather -
Clouds Broken Clouds 8000ft
Broken Clouds 9500ft
Overcast 11000ft
Pressure 1010
Change -
Raw KHYA 221656Z 23016KT 10SM BKN080 BKN095 OVC110 21/15 A2983 RMK AO2 SLP100 T02060150

VFR

69.08°F / 62.06°F

[More]
Wind 220º 14kt
Visibility >10km
Weather -
Clouds Scattered Clouds 9500ft
Pressure 1010
Change -
Raw KHYA 221556Z 22014KT 10SM SCT095 21/17 A2982 RMK AO2 SLP100 T02060167

VFR

69.98°F / 62.06°F

[More]
Wind 220º 15kt Gust 24kt
Visibility >10km
Weather -
Clouds Broken Clouds 9000ft
Pressure 1009
Change -
Raw KHYA 221456Z 22015G24KT 10SM BKN090 21/17 A2982 RMK AO2 PK WND 22027/1414 SLP098 T02110167 50004

VFR

69.98°F / 64.04°F

[More]
Wind 220º 16kt
Visibility >10km
Weather -
Clouds Scattered Clouds 9500ft
Pressure 1010
Change -
Raw KHYA 221356Z 22016KT 9SM SCT095 21/18 A2982 RMK AO2 SLP100 T02110178

VFR

66.92°F / 62.96°F

[More]
Wind 210º 14kt Gust 20kt
Visibility >10km
Weather -
Clouds Clear
Pressure 1009
Change -
Raw KHYA 221256Z 21014G20KT 8SM CLR 19/17 A2982 RMK AO2 SLP098 T01940172

VFR

66.92°F / 62.96°F

[More]
Wind 200º 13kt Gust 20kt
Visibility >10km
Weather -
Clouds Clear
Pressure 1009
Change -
Raw KHYA 221156Z 20013G20KT 7SM CLR 19/17 A2981 RMK AO2 SLP094 T01940172 10194 20183 55000

VFR

66.02°F / 62.96°F

[More]
Wind 200º 11kt Gust 19kt
Visibility >10km
Weather -
Clouds Broken Clouds 7000ft
Pressure 1008
Change -
Raw KHYA 221056Z 20011G19KT 8SM BKN070 19/17 A2979 RMK AO2 SLP089 T01890172

VFR

66.02°F / 62.96°F

[More]
Wind 200º 8kt
Visibility >10km
Weather -
Clouds Broken Clouds 6000ft
Overcast 7000ft
Pressure 1009
Change -
Raw KHYA 220956Z 20008KT 8SM BKN060 OVC070 19/17 A2980 RMK AO2 SLP093 T01890172

VFR

64.94°F / 62.96°F

[More]
Wind 210º 9kt
Visibility >10km
Weather -
Clouds Few Clouds 5500ft
Pressure 1009
Change -
Raw KHYA 220856Z AUTO 21009KT 8SM FEW055 18/17 A2981 RMK AO2 SLP095 T01830172 56009

TAF for Barnstable (KHYA)

From till


From till Wind 340º 6kt. Visibility 10km or more. Scattered Clouds 5000ft.
From till Wind 340º 7kt. Visibility 10km or more. Scattered Clouds 8000ft.
From till Wind 300º 4kt. Visibility 10km or more. Scattered Clouds 5000ft.

Raw: KHYA 230520Z 2306/2406 34006KT P6SM SCT050 FM231400 34007KT P6SM SCT080 FM240200 30004KT P6SM SCT050

Current satellite images for Barnstable, United States of America

The location marker is placed on Barnstable. [More]

The real-time satellite image combines visible light during daytime with infrared radiation during nighttime. At night, the image is not dark as infrared radiation can detect temperature differences. Unfortunately, low clouds and fog are difficult to distinguish from ground temperatures and thus can be almost invisible during the night. Meteosat satellite images for Europe are updated in real-time every 5 minutes. GOES-16/GOES-17 (North & South America) and Himawari (Asia) images update every 10 minutes.

Radar and precipitation nowcast for Barnstable

Drizzle
Light
Moderate
Heavy
Very Heavy
Hail

The location marker is placed on Barnstable. This animation shows the precipitation radar for the last hour, as well as a 1h forecast. Drizzle or light snow fall might be invisible for the radar. Precipitation intensity is colour coded, ranging from light blue to orange.